Wetterstation CH-8714 Feldbach - Werte rund um die Uhr siehe Startseite
Wetterdaten: aktuell Freitag, 28.02.2020 19:20
Datum Zeit Temp.+ 5m S Temp -10 cm Temp + 5 cm Temp +2 m N Feuchte A. BodFeucht Luftdruck Regen Wind Richtung Richtung Sonnenschein Solar Taupunkt Windchill Windben
28.02.2020 19:20 6.3 C 6.7 C 4.4 C 5.6 C 59 % 14 cb 1018.9 hPa 0.0 mm 0.0 km/h N 11 0 min 0 W/m -1.1 C 6.3 C 0.0 km/h
28.02.2020 19:10 6.3 C 6.7 C 4.4 C 5.0 C 58 % 14 cb 1018.9 hPa 0.0 mm 0.1 km/h N 11 0 min 0 W/m -1.3 C 6.3 C 3.2 km/h
28.02.2020 19:00 6.5 C 6.7 C 5.0 C 5.6 C 56 % 14 cb 1018.8 hPa 0.0 mm 0.0 km/h N 11 0 min 0 W/m -1.6 C 6.5 C 3.2 km/h
28.02.2020 18:50 6.6 C 7.2 C 5.0 C 5.6 C 52 % 14 cb 1018.8 hPa 0.0 mm 0.2 km/h N-NO 15 0 min 0 W/m -2.5 C 6.6 C 3.2 km/h
28.02.2020 18:40 6.7 C 7.2 C 5.0 C 5.6 C 51 % 14 cb 1018.7 hPa 0.0 mm 0.1 km/h N-NO 14 0 min 0 W/m -2.7 C 6.7 C 3.2 km/h
28.02.2020 18:30 6.9 C 7.2 C 5.0 C 5.6 C 52 % 14 cb 1018.7 hPa 0.0 mm 1.2 km/h N-NO 14 0 min 0 W/m -2.3 C 6.9 C 4.8 km/h
28.02.2020 18:20 7.2 C 7.2 C 5.0 C 5.6 C 48 % 14 cb 1018.8 hPa 0.0 mm 0.2 km/h N-NW 338 0 min 0 W/m -3.1 C 7.2 C 3.2 km/h
28.02.2020 18:10 7.3 C 7.2 C 5.0 C 6.1 C 47 % 14 cb 1018.8 hPa 0.0 mm 0.0 km/h W 266 0 min 0 W/m -3.3 C 7.3 C 0.0 km/h
28.02.2020 18:00 7.4 C 7.2 C 5.0 C 6.1 C 43 % 14 cb 1018.7 hPa 0.0 mm 0.0 km/h W 264 0 min 0 W/m -4.3 C 7.4 C 0.0 km/h
28.02.2020 17:50 7.7 C 7.2 C 5.0 C 6.7 C 43 % 14 cb 1018.9 hPa 0.0 mm 0.0 km/h W 264 0 min 7 W/m -4.1 C 7.7 C 0.0 km/h
28.02.2020 17:40 7.9 C 7.2 C 5.6 C 6.7 C 40 % 14 cb 1018.9 hPa 0.0 mm 0.7 km/h W 264 0 min 12 W/m -4.8 C 7.9 C 3.2 km/h
28.02.2020 17:30 8.1 C 7.2 C 6.1 C 7.2 C 42 % 14 cb 1019.0 hPa 0.0 mm 1.0 km/h W 264 0 min 28 W/m -4.0 C 8.1 C 3.2 km/h
28.02.2020 17:20 8.2 C 7.2 C 6.1 C 7.2 C 42 % 14 cb 1019.1 hPa 0.0 mm 1.1 km/h W 264 0 min 49 W/m -3.9 C 8.2 C 3.2 km/h
28.02.2020 17:10 8.3 C 7.2 C 6.1 C 7.2 C 41 % 14 cb 1019.3 hPa 0.0 mm 0.5 km/h W 264 0 min 46 W/m -4.2 C 8.3 C 4.8 km/h
28.02.2020 17:00 8.4 C 7.2 C 6.1 C 7.8 C 40 % 14 cb 1019.4 hPa 0.0 mm 0.0 km/h W 264 0 min 63 W/m -4.4 C 8.4 C 0.0 km/h
28.02.2020 16:50 8.5 C 7.2 C 6.1 C 7.8 C 38 % 14 cb 1019.5 hPa 0.0 mm 0.1 km/h W 264 0 min 67 W/m -5.0 C 8.5 C 3.2 km/h
28.02.2020 16:40 8.6 C 7.2 C 6.1 C 7.2 C 41 % 14 cb 1019.6 hPa 0.0 mm 0.8 km/h W 264 0 min 95 W/m -3.9 C 8.6 C 3.2 km/h
28.02.2020 16:30 8.7 C 7.2 C 6.1 C 7.2 C 40 % 14 cb 1019.5 hPa 0.0 mm 0.7 km/h W 264 0 min 105 W/m -4.1 C 8.7 C 4.8 km/h
28.02.2020 16:20 8.8 C 7.2 C 6.1 C 7.2 C 40 % 14 cb 1019.6 hPa 0.0 mm 1.4 km/h W 264 0 min 90 W/m -4.0 C 8.8 C 4.8 km/h
28.02.2020 16:10 9.2 C 7.2 C 6.1 C 7.2 C 40 % 14 cb 1019.8 hPa 0.0 mm 3.0 km/h W 264 0 min 83 W/m -3.7 C 9.2 C 6.4 km/h
28.02.2020 16:00 9.6 C 7.2 C 6.1 C 7.8 C 39 % 14 cb 1019.8 hPa 0.0 mm 2.5 km/h W-SW 254 0 min 146 W/m -3.7 C 9.6 C 6.4 km/h
28.02.2020 15:50 9.4 C 7.2 C 6.7 C 7.8 C 39 % 14 cb 1019.9 hPa 0.0 mm 4.0 km/h W-SW 251 10 min 322 W/m -3.8 C 9.4 C 6.4 km/h
28.02.2020 15:40 9.7 C 7.2 C 6.7 C 7.8 C 39 % 14 cb 1020.1 hPa 0.0 mm 3.4 km/h W-SW 254 10 min 334 W/m -3.6 C 9.7 C 8.0 km/h
28.02.2020 15:30 9.8 C 7.2 C 6.7 C 7.8 C 42 % 14 cb 1020.2 hPa 0.0 mm 3.2 km/h W-SW 248 10 min 371 W/m -2.5 C 9.8 C 8.0 km/h
28.02.2020 15:20 9.8 C 7.2 C 6.7 C 7.8 C 43 % 14 cb 1020.5 hPa 0.0 mm 2.5 km/h SW 229 10 min 392 W/m -2.2 C 9.8 C 6.4 km/h
28.02.2020 15:10 9.6 C 7.2 C 6.7 C 7.8 C 44 % 14 cb 1020.7 hPa 0.0 mm 2.7 km/h W-SW 241 10 min 410 W/m -2.0 C 9.6 C 6.4 km/h
28.02.2020 15:00 9.3 C 7.2 C 6.1 C 7.2 C 44 % 14 cb 1020.9 hPa 0.0 mm 3.4 km/h W-SW 245 10 min 427 W/m -2.3 C 9.3 C 8.0 km/h
28.02.2020 14:50 9.2 C 7.2 C 6.1 C 7.2 C 45 % 14 cb 1021.1 hPa 0.0 mm 3.2 km/h W-SW 241 10 min 446 W/m -2.1 C 9.2 C 8.0 km/h
28.02.2020 14:40 9.2 C 6.7 C 6.1 C 7.2 C 45 % 14 cb 1021.3 hPa 0.0 mm 4.2 km/h SW 220 10 min 462 W/m -2.1 C 9.2 C 8.0 km/h
28.02.2020 14:30 9.4 C 6.7 C 6.1 C 6.7 C 46 % 14 cb 1021.4 hPa 0.0 mm 2.8 km/h W-SW 237 10 min 478 W/m -1.6 C 9.4 C 6.4 km/h
28.02.2020 14:20 9.3 C 6.7 C 6.1 C 7.2 C 45 % 14 cb 1021.5 hPa 0.0 mm 2.6 km/h SW 220 10 min 494 W/m -2.0 C 9.3 C 6.4 km/h
28.02.2020 14:10 8.7 C 6.7 C 6.1 C 6.7 C 46 % 14 cb 1021.6 hPa 0.0 mm 2.7 km/h W-SW 241 10 min 506 W/m -2.3 C 8.7 C 11.3 km/h
28.02.2020 14:00 8.8 C 6.7 C 6.1 C 7.2 C 43 % 14 cb 1021.8 hPa 0.0 mm 3.9 km/h W-SW 251 10 min 519 W/m -3.1 C 8.8 C 9.7 km/h
28.02.2020 13:50 8.7 C 6.7 C 6.1 C 7.2 C 45 % 14 cb 1021.9 hPa 0.0 mm 3.2 km/h W-SW 254 10 min 531 W/m -2.6 C 8.7 C 6.4 km/h
28.02.2020 13:40 8.6 C 6.1 C 5.6 C 6.7 C 45 % 14 cb 1022.3 hPa 0.0 mm 3.0 km/h W-SW 247 10 min 540 W/m -2.6 C 8.6 C 8.0 km/h
28.02.2020 13:30 8.7 C 6.1 C 6.1 C 6.7 C 44 % 14 cb 1022.6 hPa 0.0 mm 3.2 km/h W-SW 243 10 min 548 W/m -2.9 C 8.7 C 8.0 km/h
28.02.2020 13:20 8.4 C 6.1 C 6.1 C 7.2 C 46 % 14 cb 1022.8 hPa 0.0 mm 4.2 km/h W-SW 238 10 min 555 W/m -2.5 C 8.4 C 8.0 km/h
28.02.2020 13:10 8.6 C 6.1 C 6.7 C 7.8 C 46 % 14 cb 1023.0 hPa 0.0 mm 4.3 km/h SW 233 10 min 563 W/m -2.4 C 8.6 C 8.0 km/h
28.02.2020 13:00 8.5 C 6.1 C 6.1 C 7.2 C 46 % 14 cb 1023.1 hPa 0.0 mm 2.0 km/h W-SW 237 10 min 568 W/m -2.4 C 8.5 C 6.4 km/h
28.02.2020 12:50 7.9 C 5.6 C 6.1 C 6.7 C 45 % 14 cb 1023.4 hPa 0.0 mm 3.8 km/h SW 233 10 min 568 W/m -3.3 C 7.9 C 8.0 km/h
28.02.2020 12:40 7.9 C 5.6 C 6.1 C 7.2 C 47 % 14 cb 1023.5 hPa 0.0 mm 4.4 km/h SW 216 10 min 568 W/m -2.7 C 7.9 C 12.9 km/h
28.02.2020 12:30 8.1 C 5.6 C 6.1 C 7.2 C 48 % 14 cb 1023.6 hPa 0.0 mm 2.9 km/h W-SW 240 10 min 367 W/m -2.2 C 8.1 C 8.0 km/h
28.02.2020 12:20 8.0 C 5.6 C 6.1 C 7.2 C 45 % 14 cb 1023.7 hPa 0.0 mm 3.4 km/h W-SW 252 10 min 476 W/m -3.2 C 8.0 C 8.0 km/h
28.02.2020 12:10 7.7 C 5.6 C 6.7 C 7.2 C 49 % 14 cb 1023.8 hPa 0.0 mm 4.2 km/h W 266 10 min 585 W/m -2.3 C 7.7 C 8.0 km/h
28.02.2020 12:00 7.6 C 5.6 C 6.7 C 7.2 C 48 % 14 cb 1023.9 hPa 0.0 mm 5.8 km/h W-SW 243 10 min 559 W/m -2.7 C 7.6 C 12.9 km/h
28.02.2020 11:50 7.8 C 5.0 C 6.7 C 6.7 C 49 % 14 cb 1023.9 hPa 0.0 mm 4.5 km/h SW 224 10 min 552 W/m -2.2 C 7.8 C 11.3 km/h
28.02.2020 11:40 8.1 C 5.0 C 5.6 C 6.7 C 51 % 14 cb 1024.1 hPa 0.0 mm 1.9 km/h W-SW 255 10 min 545 W/m -1.4 C 8.1 C 8.0 km/h
28.02.2020 11:30 7.7 C 5.0 C 5.0 C 6.7 C 52 % 14 cb 1024.2 hPa 0.0 mm 3.0 km/h W-SW 253 10 min 534 W/m -1.5 C 7.7 C 11.3 km/h
28.02.2020 11:20 7.4 C 5.0 C 5.0 C 6.7 C 51 % 14 cb 1024.3 hPa 0.0 mm 3.9 km/h W-SW 257 10 min 526 W/m -2.1 C 7.4 C 11.3 km/h
28.02.2020 11:10 7.2 C 5.0 C 5.6 C 7.2 C 52 % 14 cb 1024.5 hPa 0.0 mm 5.2 km/h W 262 10 min 513 W/m -2.0 C 7.2 C 14.5 km/h
28.02.2020 11:00 6.9 C 5.0 C 5.0 C 7.8 C 53 % 14 cb 1024.5 hPa 0.0 mm 3.9 km/h W-SW 255 10 min 497 W/m -2.0 C 6.9 C 16.1 km/h
28.02.2020 10:50 6.6 C 4.4 C 4.4 C 8.9 C 55 % 14 cb 1024.5 hPa 0.0 mm 4.8 km/h W 262 10 min 485 W/m -1.8 C 6.6 C 11.3 km/h
28.02.2020 10:40 6.3 C 4.4 C 4.4 C 9.4 C 57 % 14 cb 1024.8 hPa 0.0 mm 5.5 km/h W-SW 258 10 min 466 W/m -1.6 C 6.3 C 12.9 km/h
28.02.2020 10:30 6.2 C 4.4 C 5.0 C 9.4 C 58 % 14 cb 1024.7 hPa 0.0 mm 5.6 km/h W-NW 301 10 min 450 W/m -1.4 C 6.2 C 16.1 km/h
28.02.2020 10:20 6.3 C 4.4 C 4.4 C 8.9 C 57 % 14 cb 1024.8 hPa 0.0 mm 4.8 km/h W-SW 255 10 min 427 W/m -1.6 C 6.3 C 16.1 km/h
28.02.2020 10:10 6.2 C 4.4 C 5.0 C 8.9 C 60 % 14 cb 1024.8 hPa 0.0 mm 4.9 km/h W-SW 253 10 min 411 W/m -1.0 C 6.2 C 12.9 km/h
28.02.2020 10:00 5.8 C 4.4 C 4.4 C 8.3 C 63 % 14 cb 1024.8 hPa 0.0 mm 3.7 km/h W-SW 258 10 min 394 W/m -0.7 C 5.8 C 12.9 km/h
28.02.2020 09:50 5.2 C 4.4 C 4.4 C 8.3 C 62 % 14 cb 1024.9 hPa 0.0 mm 7.6 km/h W-SW 258 10 min 378 W/m -1.5 C 4.1 C 19.3 km/h
28.02.2020 09:40 5.3 C 4.4 C 4.4 C 7.8 C 63 % 14 cb 1024.9 hPa 0.0 mm 5.5 km/h W-NW 291 10 min 325 W/m -1.2 C 5.3 C 14.5 km/h
28.02.2020 09:30 4.8 C 4.4 C 3.9 C 7.2 C 65 % 14 cb 1024.7 hPa 0.0 mm 4.5 km/h W 259 10 min 343 W/m -1.2 C 4.8 C 12.9 km/h
28.02.2020 09:20 4.1 C 3.9 C 3.3 C 5.6 C 71 % 14 cb 1024.8 hPa 0.0 mm 0.8 km/h W 266 10 min 308 W/m -0.7 C 4.1 C 4.8 km/h
28.02.2020 09:10 3.3 C 3.9 C 2.2 C 2.8 C 72 % 14 cb 1024.8 hPa 0.0 mm 0.4 km/h NW 316 0 min 69 W/m -1.3 C 3.3 C 3.2 km/h
28.02.2020 09:00 3.2 C 3.9 C 2.2 C 2.8 C 73 % 14 cb 1024.8 hPa 0.0 mm 0.3 km/h W-SW 254 0 min 63 W/m -1.2 C 3.2 C 4.8 km/h
28.02.2020 08:50 3.1 C 3.9 C 2.8 C 2.8 C 72 % 14 cb 1024.7 hPa 0.0 mm 2.5 km/h W-SW 251 0 min 54 W/m -1.4 C 3.1 C 8.0 km/h
28.02.2020 08:40 3.1 C 3.9 C 2.8 C 2.8 C 73 % 14 cb 1024.5 hPa 0.0 mm 1.6 km/h W 274 0 min 72 W/m -1.3 C 3.1 C 6.4 km/h
28.02.2020 08:30 2.8 C 3.9 C 2.2 C 2.8 C 74 % 14 cb 1024.4 hPa 0.0 mm 1.3 km/h W 272 0 min 83 W/m -1.4 C 2.8 C 11.3 km/h
28.02.2020 08:20 2.7 C 3.9 C 2.2 C 2.2 C 75 % 14 cb 1024.3 hPa 0.0 mm 0.1 km/h W 267 0 min 60 W/m -1.3 C 2.7 C 3.2 km/h
28.02.2020 08:10 2.4 C 4.4 C 2.2 C 2.2 C 74 % 15 cb 1024.2 hPa 0.0 mm 0.5 km/h W 264 0 min 39 W/m -1.7 C 2.4 C 3.2 km/h
28.02.2020 08:00 2.1 C 4.4 C 1.7 C 2.2 C 75 % 14 cb 1024.0 hPa 0.0 mm 0.5 km/h W-SW 258 0 min 37 W/m -1.9 C 2.1 C 6.4 km/h
28.02.2020 07:50 1.8 C 4.4 C 1.1 C 1.7 C 78 % 14 cb 1023.9 hPa 0.0 mm 0.2 km/h N-NO 32 0 min 37 W/m -1.6 C 1.8 C 3.2 km/h
28.02.2020 07:40 1.9 C 4.4 C 1.1 C 1.7 C 79 % 14 cb 1023.7 hPa 0.0 mm 0.6 km/h N-NO 32 0 min 19 W/m -1.3 C 1.9 C 6.4 km/h
28.02.2020 07:30 1.9 C 4.4 C 1.1 C 1.7 C 78 % 14 cb 1023.5 hPa 0.0 mm 1.9 km/h N-NO 31 0 min 11 W/m -1.5 C 1.9 C 6.4 km/h
28.02.2020 07:20 2.0 C 4.4 C 1.7 C 1.7 C 78 % 14 cb 1023.5 hPa 0.0 mm 1.0 km/h O-NO 68 0 min 7 W/m -1.4 C 2.0 C 6.4 km/h
28.02.2020 07:10 2.2 C 4.4 C 1.7 C 1.7 C 79 % 14 cb 1023.3 hPa 0.0 mm 0.2 km/h NO 51 0 min 0 W/m -1.1 C 2.2 C 4.8 km/h
28.02.2020 07:00 2.2 C 4.4 C 1.7 C 1.7 C 78 % 14 cb 1023.3 hPa 0.0 mm 0.9 km/h O-NO 62 0 min 0 W/m -1.2 C 2.2 C 4.8 km/h
28.02.2020 06:50 2.3 C 4.4 C 1.7 C 2.2 C 78 % 14 cb 1023.3 hPa 0.0 mm 0.4 km/h N 358 0 min 0 W/m -1.1 C 2.3 C 3.2 km/h
28.02.2020 06:40 2.3 C 4.4 C 2.2 C 2.2 C 78 % 14 cb 1023.3 hPa 0.0 mm 0.2 km/h N 356 0 min 0 W/m -1.1 C 2.3 C 4.8 km/h
28.02.2020 06:30 2.4 C 4.4 C 2.2 C 2.2 C 78 % 14 cb 1023.3 hPa 0.0 mm 0.4 km/h N 3 0 min 0 W/m -1.0 C 2.4 C 6.4 km/h
28.02.2020 06:20 2.6 C 4.4 C 2.2 C 2.2 C 78 % 14 cb 1023.2 hPa 0.0 mm 3.3 km/h W-SW 249 0 min 0 W/m -0.8 C 2.6 C 14.5 km/h
28.02.2020 06:10 2.7 C 4.4 C 2.2 C 2.2 C 77 % 14 cb 1023.1 hPa 0.0 mm 6.1 km/h W-SW 258 0 min 0 W/m -0.9 C 2.7 C 19.3 km/h
28.02.2020 06:00 2.7 C 4.4 C 2.2 C 2.2 C 77 % 14 cb 1022.9 hPa 0.0 mm 3.1 km/h W-NW 289 0 min 0 W/m -0.9 C 2.7 C 14.5 km/h
28.02.2020 05:50 2.7 C 4.4 C 2.2 C 2.2 C 77 % 14 cb 1022.7 hPa 0.0 mm 1.6 km/h W 262 0 min 0 W/m -0.9 C 2.7 C 4.8 km/h
28.02.2020 05:40 2.8 C 4.4 C 2.2 C 2.2 C 77 % 14 cb 1022.6 hPa 0.0 mm 2.5 km/h W-SW 247 0 min 0 W/m -0.8 C 2.8 C 9.7 km/h
28.02.2020 05:30 2.8 C 4.4 C 2.2 C 2.2 C 77 % 14 cb 1022.4 hPa 0.0 mm 1.3 km/h W-SW 251 0 min 0 W/m -0.8 C 2.8 C 6.4 km/h
28.02.2020 05:20 2.9 C 4.4 C 2.2 C 2.8 C 76 % 14 cb 1022.2 hPa 0.0 mm 2.1 km/h W 263 0 min 0 W/m -0.9 C 2.9 C 11.3 km/h
28.02.2020 05:10 3.0 C 4.4 C 2.2 C 2.8 C 76 % 14 cb 1022.0 hPa 0.0 mm 0.9 km/h W-SW 257 0 min 0 W/m -0.8 C 3.0 C 6.4 km/h
28.02.2020 05:00 3.1 C 4.4 C 2.8 C 2.8 C 75 % 14 cb 1021.9 hPa 0.0 mm 1.0 km/h W-NW 283 0 min 0 W/m -0.9 C 3.1 C 8.0 km/h
28.02.2020 04:50 3.1 C 4.4 C 2.8 C 2.8 C 75 % 14 cb 1021.6 hPa 0.0 mm 0.6 km/h W-NW 283 0 min 0 W/m -0.9 C 3.1 C 4.8 km/h
28.02.2020 04:40 3.1 C 4.4 C 2.8 C 2.8 C 75 % 14 cb 1021.3 hPa 0.0 mm 0.5 km/h W 263 0 min 0 W/m -0.9 C 3.1 C 6.4 km/h
28.02.2020 04:30 3.1 C 4.4 C 2.8 C 2.8 C 74 % 14 cb 1021.2 hPa 0.0 mm 1.2 km/h W 265 0 min 0 W/m -1.1 C 3.1 C 12.9 km/h
28.02.2020 04:20 3.1 C 4.4 C 2.8 C 2.8 C 74 % 14 cb 1021.1 hPa 0.0 mm 2.0 km/h W 266 0 min 0 W/m -1.1 C 3.1 C 11.3 km/h
28.02.2020 04:10 3.2 C 4.4 C 2.8 C 2.8 C 74 % 14 cb 1020.8 hPa 0.0 mm 1.6 km/h W-SW 255 0 min 0 W/m -1.0 C 3.2 C 8.0 km/h
28.02.2020 04:00 3.2 C 4.4 C 2.2 C 2.8 C 73 % 14 cb 1020.6 hPa 0.0 mm 2.2 km/h W-SW 256 0 min 0 W/m -1.2 C 3.2 C 8.0 km/h
28.02.2020 03:50 3.3 C 4.4 C 2.8 C 2.8 C 74 % 14 cb 1020.3 hPa 0.0 mm 2.0 km/h O-NO 62 0 min 0 W/m -0.9 C 3.3 C 8.0 km/h
28.02.2020 03:40 3.3 C 4.4 C 2.8 C 2.8 C 73 % 14 cb 1020.0 hPa 0.0 mm 3.4 km/h W-SW 256 0 min 0 W/m -1.1 C 3.3 C 11.3 km/h
28.02.2020 03:30 3.3 C 4.4 C 2.8 C 2.8 C 74 % 14 cb 1019.8 hPa 0.0 mm 2.8 km/h W 262 0 min 0 W/m -0.9 C 3.3 C 11.3 km/h
28.02.2020 03:20 3.2 C 4.4 C 2.8 C 2.8 C 76 % 14 cb 1019.5 hPa 0.0 mm 2.4 km/h W-SW 248 0 min 0 W/m -0.6 C 3.2 C 12.9 km/h
28.02.2020 03:10 3.1 C 4.4 C 2.8 C 2.8 C 77 % 14 cb 1019.2 hPa 0.0 mm 4.0 km/h W-SW 252 0 min 0 W/m -0.5 C 3.1 C 12.9 km/h
28.02.2020 03:00 3.0 C 4.4 C 2.2 C 2.8 C 79 % 14 cb 1019.0 hPa 0.0 mm 0.5 km/h SW 219 0 min 0 W/m -0.3 C 3.0 C 6.4 km/h
28.02.2020 02:50 3.1 C 4.4 C 2.2 C 2.8 C 79 % 14 cb 1018.8 hPa 0.0 mm 1.7 km/h W-SW 254 0 min 0 W/m -0.2 C 3.1 C 8.0 km/h
28.02.2020 02:40 3.3 C 4.4 C 2.8 C 2.8 C 77 % 14 cb 1018.6 hPa 0.0 mm 3.4 km/h W-SW 249 0 min 0 W/m -0.3 C 3.3 C 12.9 km/h
28.02.2020 02:30 3.3 C 4.4 C 2.8 C 3.3 C 76 % 14 cb 1018.4 hPa 0.0 mm 3.1 km/h W-SW 252 0 min 0 W/m -0.5 C 3.3 C 11.3 km/h
28.02.2020 02:20 3.3 C 4.4 C 2.8 C 3.3 C 77 % 14 cb 1018.1 hPa 0.0 mm 3.1 km/h W-SW 237 0 min 0 W/m -0.3 C 3.3 C 16.1 km/h
28.02.2020 02:10 3.3 C 4.4 C 2.8 C 3.3 C 78 % 14 cb 1017.9 hPa 0.0 mm 2.9 km/h NW 325 0 min 0 W/m -0.2 C 3.3 C 20.9 km/h
28.02.2020 02:00 3.4 C 4.4 C 2.8 C 3.3 C 77 % 14 cb 1017.8 hPa 0.0 mm 5.9 km/h W 262 0 min 0 W/m -0.2 C 3.4 C 20.9 km/h
28.02.2020 01:50 3.4 C 4.4 C 2.8 C 3.3 C 78 % 14 cb 1017.6 hPa 0.0 mm 3.3 km/h W-SW 249 0 min 0 W/m -0.1 C 3.4 C 16.1 km/h
28.02.2020 01:40 3.4 C 4.4 C 2.8 C 3.3 C 79 % 14 cb 1017.3 hPa 0.0 mm 2.3 km/h W-NW 288 0 min 0 W/m 0.1 C 3.4 C 14.5 km/h
28.02.2020 01:30 3.5 C 4.4 C 2.8 C 3.3 C 79 % 14 cb 1017.1 hPa 0.0 mm 2.6 km/h W 281 0 min 0 W/m 0.2 C 3.5 C 12.9 km/h
28.02.2020 01:20 3.7 C 4.4 C 3.3 C 3.3 C 79 % 14 cb 1016.8 hPa 0.0 mm 5.0 km/h W-SW 237 0 min 0 W/m 0.4 C 3.7 C 19.3 km/h
28.02.2020 01:10 3.7 C 4.4 C 3.3 C 3.3 C 79 % 14 cb 1016.4 hPa 0.0 mm 4.7 km/h SW 232 0 min 0 W/m 0.4 C 3.7 C 14.5 km/h
28.02.2020 01:00 3.9 C 4.4 C 3.3 C 3.3 C 77 % 14 cb 1016.3 hPa 0.0 mm 6.8 km/h W-SW 249 0 min 0 W/m 0.2 C 3.5 C 19.3 km/h
28.02.2020 00:50 3.9 C 4.4 C 3.3 C 3.9 C 75 % 14 cb 1016.0 hPa 0.0 mm 5.6 km/h W-SW 248 0 min 0 W/m -0.1 C 3.9 C 19.3 km/h
28.02.2020 00:40 4.1 C 4.4 C 3.3 C 3.9 C 76 % 14 cb 1015.9 hPa 0.0 mm 6.5 km/h W-NW 297 0 min 0 W/m 0.3 C 4.0 C 22.5 km/h
28.02.2020 00:30 4.2 C 4.4 C 3.3 C 3.9 C 75 % 14 cb 1015.6 hPa 0.0 mm 4.2 km/h W-SW 249 0 min 0 W/m 0.2 C 4.2 C 16.1 km/h
28.02.2020 00:20 4.3 C 4.4 C 3.3 C 3.9 C 73 % 14 cb 1015.3 hPa 0.0 mm 3.1 km/h W-SW 257 0 min 0 W/m -0.1 C 4.3 C 19.3 km/h
28.02.2020 00:11 4.3 C 4.4 C 3.3 C 3.9 C 73 % 14 cb 1015.0 hPa 0.0 mm 1.7 km/h W-SW 243 0 min 0 W/m -0.1 C 4.3 C 8.0 km/h
28.02.2020 00:00 4.4 C 4.4 C 3.3 C 3.9 C 74 % 14 cb 1014.6 hPa 0.0 mm 2.0 km/h O 100 0 min 0 W/m 0.2 C 4.4 C 14.5 km/h
_ Min-Zeit 07:40 08:20 07:30 07:00 16:50 00:00 00:00 - 17:00 - - - - 16:50 07:50 17:00
Minimum _ 1.8 C 3.9 C 1.1 C 1.7 C 38 % 14 cb 1014.6 hPa - 0.0 km/h - - - - -5.0 C 1.8 C 0.0 km/h
_ Max-Zeit 15:30 14:50 11:50 10:30 01:10 08:10 09:40 00:00 09:50 - - 09:20 12:10 01:10 15:20 00:40
Maximum _ 9.9 C 7.2 C 6.7 C 9.4 C 79 % 15 cb 1024.9 hPa 0.0 mm 7.6 km/h
W-SW
- - 10 min 585 W/m 0.4 C 9.8 C 22.5 km/h
W
Durchschnitt _ 5.5 C 5.3 C 4.1 C 5.1 C 62 % 14 cb 1021.2 hPa #0.0 mm 2.5 km/h W-SW - #6:40 h 314 W/m -1.7 C 5.5 C 9.0 km/h
Achtung: Die Daten werden automatisch gemessen und nicht kontrolliert! Aktualisierung 7/24